Time;durP1;ratioP1;P1;durP2;ratioP2;P2;SDS_P1;SDS_P2;PMS_P1;PMS_P2;Temp;Humidity;BMP_temperature;BMP_pressure;BME280_temperature;BME280_humidity;BME280_pressure;Samples;Min_cycle;Max_cycle;Signal;HPM_P1;HPM_P2
2022/01/15 00:01:41;;;;;;;24.98;10.90;;;;;;;-3.91;100.00;102351.53;5037709;28;20063;-53
2022/01/15 00:04:07;;;;;;;24.80;13.07;;;;;;;-3.94;100.00;102347.31;5035847;28;20040;-54
2022/01/15 00:06:33;;;;;;;20.08;10.63;;;;;;;-3.99;100.00;102349.22;5019561;28;20030;-51
2022/01/15 00:08:58;;;;;;;24.58;10.90;;;;;;;-3.99;100.00;102338.84;5039693;28;20203;-51
2022/01/15 00:11:23;;;;;;;25.95;9.30;;;;;;;-3.99;100.00;102341.44;5038613;28;20095;-48
2022/01/15 00:13:56;;;;;;;31.02;10.20;;;;;;;-4.01;100.00;102335.44;5039876;28;20044;-52
2022/01/15 00:16:44;;;;;;;27.75;10.35;;;;;;;-4.03;100.00;102332.06;5039974;28;20035;-49
2022/01/15 00:19:11;;;;;;;21.15;9.18;;;;;;;-4.03;100.00;102332.06;5040082;28;20136;-52
2022/01/15 00:21:37;;;;;;;19.00;8.25;;;;;;;-4.00;100.00;102321.59;5038388;28;20026;-51
2022/01/15 00:24:03;;;;;;;21.70;9.50;;;;;;;-4.03;100.00;102319.94;5038626;28;20059;-50
2022/01/15 00:26:29;;;;;;;24.10;9.60;;;;;;;-4.03;100.00;102324.28;5033788;28;20360;-53
2022/01/15 00:28:54;;;;;;;22.20;8.40;;;;;;;-4.03;100.00;102312.16;5037297;28;20119;-53
2022/01/15 00:31:20;;;;;;;22.50;10.18;;;;;;;-4.06;100.00;102311.44;5036966;28;20490;-53
2022/01/15 00:33:46;;;;;;;22.02;9.25;;;;;;;-4.10;100.00;102308.13;5038752;28;20070;-52
2022/01/15 00:36:11;;;;;;;20.08;9.27;;;;;;;-4.12;100.00;102298.72;5038639;28;20043;-51
2022/01/15 00:38:37;;;;;;;20.42;8.82;;;;;;;-4.17;100.00;102299.69;5038438;28;20036;-51
2022/01/15 00:41:02;;;;;;;28.33;10.60;;;;;;;-4.18;100.00;102300.59;5037613;28;20037;-51
2022/01/15 00:43:28;;;;;;;15.32;8.70;;;;;;;-4.20;100.00;102294.63;5040074;28;20041;-51
2022/01/15 00:45:55;;;;;;;21.05;9.15;;;;;;;-4.20;100.00;102289.44;5040668;28;20036;-51
2022/01/15 00:48:21;;;;;;;26.67;9.55;;;;;;;-4.20;100.00;102286.84;5041110;28;20116;-53
2022/01/15 00:50:47;;;;;;;25.80;10.90;;;;;;;-4.24;100.00;102284.41;5036403;28;20112;-50
2022/01/15 00:53:12;;;;;;;21.83;8.93;;;;;;;-4.24;100.00;102287.84;5040154;28;20033;-55
2022/01/15 00:55:37;;;;;;;22.00;10.10;;;;;;;-4.20;100.00;102284.25;5037847;28;20079;-53
2022/01/15 00:58:03;;;;;;;22.95;9.77;;;;;;;-4.19;100.00;102280.75;5020225;28;20029;-50
2022/01/15 01:00:28;;;;;;;21.27;11.13;;;;;;;-4.17;100.00;102281.56;5037741;28;20378;-52
2022/01/15 01:02:54;;;;;;;28.55;11.95;;;;;;;-4.17;100.00;102280.72;5021484;28;20029;-53
2022/01/15 01:05:20;;;;;;;22.38;10.52;;;;;;;-4.17;100.00;102284.16;5037211;28;20067;-52
2022/01/15 01:07:47;;;;;;;22.45;10.05;;;;;;;-4.12;100.00;102275.38;5039797;28;20031;-48
2022/01/15 01:23:45;;;;;;;21.85;10.10;;;;;;;-4.29;100.00;102242.28;5043398;28;20068;-53
2022/01/15 01:26:38;;;;;;;21.85;11.43;;;;;;;-4.29;100.00;102237.94;5040558;28;20087;-51
2022/01/15 01:32:14;;;;;;;24.73;10.80;;;;;;;-4.38;100.00;102227.91;5041751;28;20036;-51
2022/01/15 01:34:36;;;;;;;18.25;8.48;;;;;;;-4.39;100.00;102227.06;5041450;28;20040;-52
2022/01/15 01:37:39;;;;;;;28.40;10.52;;;;;;;-4.34;100.00;102223.44;5038894;28;20526;-49
2022/01/15 01:40:06;;;;;;;16.35;8.57;;;;;;;-4.38;100.00;102213.19;5039192;28;20076;-52
2022/01/15 01:42:41;;;;;;;19.30;9.13;;;;;;;-4.46;100.00;102211.78;5025210;28;20119;-51
2022/01/15 01:45:13;;;;;;;26.65;11.40;;;;;;;-4.46;100.00;102204.84;5040927;28;20032;-53
2022/01/15 01:47:41;;;;;;;24.92;9.68;;;;;;;-4.45;100.00;102210.88;5041507;28;20056;-48
2022/01/15 01:50:09;;;;;;;21.77;8.82;;;;;;;-4.41;100.00;102210.72;5040199;28;20036;-51
2022/01/15 01:52:35;;;;;;;26.15;9.70;;;;;;;-4.35;100.00;102201.06;5037963;28;20025;-53
2022/01/15 01:55:01;;;;;;;23.13;9.15;;;;;;;-4.40;100.00;102194.28;5039543;28;20040;-50
2022/01/15 01:57:26;;;;;;;19.95;10.18;;;;;;;-4.47;100.00;102197.97;5040023;28;20115;-52
2022/01/15 01:59:51;;;;;;;17.70;7.40;;;;;;;-4.44;100.00;102194.41;5037216;28;20474;-52
2022/01/15 02:02:17;;;;;;;16.23;8.27;;;;;;;-4.34;100.00;102192.38;5041555;28;20037;-49
2022/01/15 02:04:42;;;;;;;17.15;8.88;;;;;;;-4.24;100.00;102189.41;5043889;28;20029;-49
2022/01/15 02:07:08;;;;;;;19.05;9.00;;;;;;;-4.22;100.00;102190.19;5052372;28;20021;-51
2022/01/15 02:09:34;;;;;;;24.60;10.50;;;;;;;-4.29;100.00;102182.69;5011560;28;20067;-48
2022/01/15 02:11:59;;;;;;;24.20;9.00;;;;;;;-4.35;100.00;102164.78;5046080;28;20587;-48
2022/01/15 02:14:26;;;;;;;20.45;8.98;;;;;;;-4.33;100.00;102168.19;5035694;28;20065;-46
2022/01/15 02:16:52;;;;;;;30.65;11.13;;;;;;;-4.33;100.00;102171.63;5044079;28;20033;-53
2022/01/15 02:19:17;;;;;;;20.55;9.13;;;;;;;-4.32;100.00;102167.28;5044464;28;20040;-49
2022/01/15 02:24:26;;;;;;;20.85;8.63;;;;;;;-4.44;100.00;102158.16;5047701;28;20055;-52
2022/01/15 02:26:54;;;;;;;22.80;9.73;;;;;;;-4.48;100.00;102156.59;5045650;28;20577;-52
2022/01/15 02:29:19;;;;;;;22.17;10.02;;;;;;;-4.49;100.00;102150.59;5046254;28;20478;-48
2022/01/15 02:31:45;;;;;;;20.63;8.52;;;;;;;-4.48;100.00;102160.03;5046777;28;20048;-47
2022/01/15 02:34:10;;;;;;;19.45;8.70;;;;;;;-4.51;100.00;102144.63;5047385;28;20044;-48
2022/01/15 02:36:37;;;;;;;20.30;8.52;;;;;;;-4.53;100.00;102155.91;5046715;28;20040;-48
2022/01/15 02:39:04;;;;;;;19.50;8.18;;;;;;;-4.61;100.00;102149.25;5033215;28;20099;-47
2022/01/15 02:41:36;;;;;;;17.88;8.48;;;;;;;-4.66;100.00;102145.13;5022942;28;20552;-47
2022/01/15 02:44:10;;;;;;;18.20;7.50;;;;;;;-4.67;100.00;102144.28;5034252;28;20037;-48
2022/01/15 02:48:00;;;;;;;13.77;7.85;;;;;;;-4.62;100.00;102144.13;5039088;28;20030;-48
2022/01/15 02:49:23;;;;;;;18.58;8.23;;;;;;;-4.52;100.00;102147.25;5041287;28;20481;-49
2022/01/15 02:51:48;;;;;;;23.38;8.43;;;;;;;-4.46;100.00;102141.88;5031724;28;20037;-50
2022/01/15 02:54:13;;;;;;;19.15;8.45;;;;;;;-4.52;100.00;102137.72;5042533;28;20037;-51
2022/01/15 02:56:45;;;;;;;15.70;6.90;;;;;;;-4.61;100.00;102133.72;5043386;28;20037;-46
2022/01/15 02:59:27;;;;;;;19.83;7.15;;;;;;;-4.68;100.00;102134.81;5027931;28;20049;-49
2022/01/15 03:01:52;;;;;;;14.00;6.65;;;;;;;-4.66;100.00;102134.78;5042143;28;20040;-50
2022/01/15 03:04:18;;;;;;;17.35;7.82;;;;;;;-4.63;100.00;102117.38;5031178;28;20041;-52
2022/01/15 03:06:44;;;;;;;20.63;7.93;;;;;;;-4.60;100.00;102114.69;5042115;28;20037;-51
2022/01/15 03:09:09;;;;;;;23.85;7.57;;;;;;;-4.54;100.00;102107.59;5051293;28;20452;-50
2022/01/15 03:11:35;;;;;;;21.98;8.27;;;;;;;-4.50;100.00;102110.03;5045005;28;20029;-46
2022/01/15 03:14:01;;;;;;;16.20;8.00;;;;;;;-4.54;100.00;102108.47;5030484;28;20037;-47
2022/01/15 03:16:27;;;;;;;26.75;8.68;;;;;;;-4.61;100.00;102097.47;5039200;28;20044;-50
2022/01/15 03:18:52;;;;;;;24.95;8.13;;;;;;;-4.63;100.00;102099.28;5046275;28;20381;-49
2022/01/15 03:21:18;;;;;;;22.67;8.18;;;;;;;-4.66;100.00;102095.97;5046008;28;20037;-51
2022/01/15 03:23:43;;;;;;;21.88;8.80;;;;;;;-4.65;100.00;102087.28;5035499;28;20049;-49
2022/01/15 03:26:11;;;;;;;17.38;8.18;;;;;;;-4.68;100.00;102088.22;5026715;28;20410;-50
2022/01/15 03:28:37;;;;;;;20.00;7.82;;;;;;;-4.71;100.00;102088.34;5026755;28;20047;-51
2022/01/15 03:31:03;;;;;;;22.52;7.32;;;;;;;-4.72;100.00;102091.00;5035160;28;20036;-47
2022/01/15 03:33:29;;;;;;;18.33;6.57;;;;;;;-4.81;100.00;102089.56;5045108;28;20041;-52
2022/01/15 03:35:54;;;;;;;13.23;6.60;;;;;;;-4.89;100.00;102091.56;5045274;28;20040;-50
2022/01/15 03:38:20;;;;;;;14.73;6.65;;;;;;;-4.94;100.00;102094.31;5032128;28;20053;-52
2022/01/15 03:40:45;;;;;;;14.25;6.75;;;;;;;-4.94;100.00;102089.13;5032613;28;20029;-53
2022/01/15 03:43:12;;;;;;;17.70;7.65;;;;;;;-4.88;100.00;102088.06;5039773;28;20041;-48
2022/01/15 03:45:37;;;;;;;13.15;7.00;;;;;;;-4.78;100.00;102089.44;5041117;28;20037;-48
2022/01/15 03:48:03;;;;;;;21.00;8.82;;;;;;;-4.73;100.00;102074.59;5030541;28;20580;-50
2022/01/15 03:50:28;;;;;;;17.55;7.95;;;;;;;-4.75;100.00;102078.16;5037722;28;20028;-50
2022/01/15 03:52:55;;;;;;;14.13;6.50;;;;;;;-4.80;100.00;102074.88;5042554;28;20398;-51
2022/01/15 03:55:21;;;;;;;16.33;6.82;;;;;;;-4.81;100.00;102084.38;5030908;28;20496;-52
2022/01/15 03:57:47;;;;;;;25.25;7.60;;;;;;;-4.81;100.00;102079.22;5045594;28;20033;-50
2022/01/15 04:00:17;;;;;;;20.25;7.25;;;;;;;-4.89;100.00;102082.06;5038333;28;20067;-52
2022/01/15 04:02:43;;;;;;;13.35;6.47;;;;;;;-4.98;100.00;102078.94;5023301;28;20143;-48
2022/01/15 04:05:10;;;;;;;21.48;7.65;;;;;;;-4.99;100.00;102083.25;5045543;28;20031;-48
2022/01/15 04:07:36;;;;;;;14.63;6.75;;;;;;;-5.02;100.00;102075.63;5037222;28;20032;-48
2022/01/15 04:10:02;;;;;;;14.70;6.75;;;;;;;-4.90;100.00;102080.38;5045504;28;20390;-54
2022/01/15 04:12:28;;;;;;;14.93;7.18;;;;;;;-4.80;100.00;102070.56;5044147;28;20401;-50
2022/01/15 04:14:53;;;;;;;18.05;7.15;;;;;;;-4.82;100.00;102074.94;5026549;28;20041;-50
2022/01/15 04:17:18;;;;;;;16.58;7.45;;;;;;;-4.85;100.00;102083.66;5045220;28;20044;-47
2022/01/15 04:19:44;;;;;;;12.52;6.90;;;;;;;-4.82;100.00;102085.28;5039580;28;20074;-49
2022/01/15 04:22:09;;;;;;;11.35;5.95;;;;;;;-4.86;100.00;102081.09;5044517;28;20024;-48
2022/01/15 04:24:35;;;;;;;17.70;6.38;;;;;;;-4.89;100.00;102081.22;5044844;28;20053;-49
2022/01/15 04:27:00;;;;;;;21.05;7.13;;;;;;;-4.90;100.00;102080.38;5028692;28;20490;-53
2022/01/15 04:29:25;;;;;;;21.45;6.40;;;;;;;-4.92;100.00;102063.22;5041805;28;20037;-47
2022/01/15 04:31:51;;;;;;;16.23;6.72;;;;;;;-4.94;100.00;102062.41;5030319;28;20044;-47
2022/01/15 04:34:27;;;;;;;11.80;6.00;;;;;;;-5.00;100.00;102057.47;5041597;28;20037;-52
2022/01/15 04:36:56;;;;;;;18.55;6.75;;;;;;;-5.02;100.00;102062.69;5044914;28;20037;-52
2022/01/15 04:39:22;;;;;;;8.82;5.43;;;;;;;-5.00;100.00;102041.94;5043527;28;20037;-48
2022/01/15 04:41:47;;;;;;;14.55;7.13;;;;;;;-5.00;100.00;102042.78;5027456;28;20038;-51
2022/01/15 04:44:13;;;;;;;11.80;5.28;;;;;;;-5.07;100.00;102033.53;5055886;28;20460;-52
2022/01/15 04:46:39;;;;;;;18.23;6.78;;;;;;;-5.13;100.00;102037.19;5051727;28;20025;-48
2022/01/15 04:49:06;;;;;;;14.38;6.63;;;;;;;-5.13;100.00;102041.50;5050858;28;20033;-50
2022/01/15 04:51:32;;;;;;;15.73;6.78;;;;;;;-5.09;100.00;102036.16;5041827;28;20099;-51
2022/01/15 04:53:57;;;;;;;16.05;7.60;;;;;;;-5.11;100.00;102035.41;5033905;28;20059;-49
2022/01/15 04:56:23;;;;;;;12.18;5.40;;;;;;;-5.11;100.00;102044.88;5039532;28;20037;-48
2022/01/15 04:58:48;;;;;;;7.18;4.72;;;;;;;-5.19;100.00;102034.78;5044699;28;20033;-52
2022/01/15 05:01:14;;;;;;;10.30;5.55;;;;;;;-5.20;100.00;102038.28;5048475;28;20477;-48
2022/01/15 05:03:39;;;;;;;17.13;6.93;;;;;;;-5.16;100.00;102032.13;5036491;28;20034;-46
2022/01/15 05:06:05;;;;;;;14.43;5.57;;;;;;;-5.10;100.00;102028.47;5034338;28;20067;-51
2022/01/15 05:08:31;;;;;;;16.95;7.72;;;;;;;-5.03;100.00;102022.19;5020331;28;20544;-52
2022/01/15 05:10:59;;;;;;;19.75;7.28;;;;;;;-4.99;100.00;102028.94;5033122;28;20400;-49
2022/01/15 05:13:28;;;;;;;10.98;4.90;;;;;;;-4.98;100.00;102027.19;5038486;28;20138;-52
2022/01/15 05:15:54;;;;;;;19.38;5.85;;;;;;;-4.93;100.00;102025.28;5032830;28;20454;-48
2022/01/15 05:18:20;;;;;;;18.67;7.68;;;;;;;-4.79;100.00;102027.41;5053464;28;20116;-52
2022/01/15 05:20:45;;;;;;;15.15;7.68;;;;;;;-4.68;100.00;102025.28;5039822;28;20029;-51
2022/01/15 05:23:12;;;;;;;10.43;5.55;;;;;;;-4.72;100.00;102024.56;5030284;28;20037;-50
2022/01/15 05:25:38;;;;;;;15.45;6.78;;;;;;;-4.80;100.00;102023.97;5028981;28;20541;-48
2022/01/15 05:28:03;;;;;;;16.83;5.75;;;;;;;-4.89;100.00;102024.28;5042789;28;20056;-50
2022/01/15 05:30:30;;;;;;;20.73;6.78;;;;;;;-4.95;100.00;102016.75;5036478;28;20033;-48
2022/01/15 05:32:56;;;;;;;20.55;6.30;;;;;;;-4.95;100.00;102009.84;5040306;28;20025;-47
2022/01/15 05:35:26;;;;;;;14.57;6.75;;;;;;;-4.96;100.00;102008.13;5039227;28;20124;-47
2022/01/15 05:37:52;;;;;;;12.63;5.80;;;;;;;-4.99;100.00;102003.06;5022584;28;20041;-51
2022/01/15 05:40:18;;;;;;;12.70;5.28;;;;;;;-4.99;100.00;102004.81;5034290;28;20064;-48
2022/01/15 05:42:43;;;;;;;8.80;4.65;;;;;;;-5.05;100.00;101993.78;5036302;28;20071;-47
2022/01/15 05:45:10;;;;;;;11.10;5.10;;;;;;;-5.10;100.00;101989.66;5037541;28;20044;-49
2022/01/15 05:47:35;;;;;;;14.23;5.35;;;;;;;-5.12;100.00;101986.28;5039390;28;20064;-48
2022/01/15 05:50:00;;;;;;;8.73;4.60;;;;;;;-5.10;100.00;101984.50;5040369;28;20040;-47
2022/01/15 05:52:26;;;;;;;15.20;5.30;;;;;;;-5.13;100.00;101979.44;5030702;28;20175;-49
2022/01/15 05:54:51;;;;;;;13.65;6.90;;;;;;;-5.20;100.00;101973.63;5026423;28;20029;-50
2022/01/15 05:57:16;;;;;;;14.40;4.95;;;;;;;-5.14;100.00;101963.06;5044624;28;20474;-49
2022/01/15 05:59:42;;;;;;;11.93;6.05;;;;;;;-5.09;100.00;101963.72;5028476;28;20042;-49
2022/01/15 06:02:07;;;;;;;11.45;4.35;;;;;;;-5.06;100.00;101970.53;5038114;28;20033;-48
2022/01/15 06:04:33;;;;;;;14.63;5.90;;;;;;;-5.02;100.00;101968.72;5028615;28;20502;-48
2022/01/15 06:06:58;;;;;;;14.73;5.30;;;;;;;-5.01;100.00;101966.06;5047841;28;20045;-49
2022/01/15 06:09:23;;;;;;;17.52;5.82;;;;;;;-5.00;100.00;101972.94;5052853;28;20039;-48
2022/01/15 06:11:50;;;;;;;14.80;5.53;;;;;;;-4.94;100.00;101977.88;5047051;28;20094;-47
2022/01/15 06:14:15;;;;;;;11.75;5.22;;;;;;;-4.92;100.00;101975.25;5035190;28;20384;-47
2022/01/15 06:16:40;;;;;;;8.65;5.43;;;;;;;-4.94;100.00;101974.44;5041465;28;20063;-46
2022/01/15 06:19:06;;;;;;;10.30;5.97;;;;;;;-4.94;100.00;101975.28;5047819;28;20043;-48
2022/01/15 06:21:31;;;;;;;13.85;5.55;;;;;;;-4.83;100.00;101969.72;5035904;28;20033;-52
2022/01/15 06:23:57;;;;;;;10.55;5.22;;;;;;;-4.73;100.00;101958.13;5028594;28;20092;-52
2022/01/15 06:26:22;;;;;;;17.98;5.32;;;;;;;-4.64;100.00;101957.81;5028727;28;20072;-49
2022/01/15 06:28:48;;;;;;;12.63;5.38;;;;;;;-4.58;100.00;101967.09;5036272;28;20508;-46
2022/01/15 06:31:15;;;;;;;8.25;4.90;;;;;;;-4.47;100.00;101964.94;5048023;28;20044;-49
2022/01/15 06:33:40;;;;;;;10.80;5.10;;;;;;;-4.36;100.00;101954.19;5047270;28;20029;-47
2022/01/15 06:36:06;;;;;;;16.05;7.45;;;;;;;-4.22;100.00;101954.47;5037570;28;20075;-50
2022/01/15 06:38:31;;;;;;;10.32;4.90;;;;;;;-4.10;100.00;101945.41;5034509;28;20032;-49
2022/01/15 06:40:57;;;;;;;11.70;4.97;;;;;;;-4.01;100.00;101954.56;5047421;28;20095;-50
2022/01/15 06:43:22;;;;;;;9.05;4.53;;;;;;;-3.95;100.00;101951.69;5043077;28;20103;-51
2022/01/15 06:45:47;;;;;;;15.77;7.78;;;;;;;-3.89;100.00;101956.66;5040806;28;20442;-51
2022/01/15 06:48:13;;;;;;;9.55;4.43;;;;;;;-3.83;100.00;101956.41;5027889;28;20391;-49
2022/01/15 06:50:38;;;;;;;13.98;6.63;;;;;;;-3.74;100.00;101942.25;5040913;28;20475;-46
2022/01/15 06:53:04;;;;;;;13.98;5.80;;;;;;;-3.65;100.00;101946.19;5042163;28;20037;-47
2022/01/15 06:55:29;;;;;;;13.13;6.15;;;;;;;-3.61;100.00;101951.19;5042870;28;20055;-50
2022/01/15 06:57:56;;;;;;;10.73;5.75;;;;;;;-3.55;100.00;101956.09;5042785;28;20018;-51
2022/01/15 07:00:21;;;;;;;13.40;6.15;;;;;;;-3.52;100.00;101952.53;5036500;28;20366;-47
2022/01/15 07:02:47;;;;;;;15.95;5.43;;;;;;;-3.47;100.00;101947.19;5042239;28;20032;-48
2022/01/15 07:05:12;;;;;;;10.35;4.22;;;;;;;-3.42;100.00;101950.41;5041234;28;20028;-50
2022/01/15 07:07:44;;;;;;;10.07;6.47;;;;;;;-3.36;100.00;101947.56;5012362;28;20033;-50
2022/01/15 07:10:09;;;;;;;;;;;;;;;-3.30;100.00;101948.16;5043102;28;20389;-52
2022/01/15 07:12:34;;;;;;;18.27;6.22;;;;;;;-3.26;100.00;101950.59;5046714;28;19912;-52
2022/01/15 07:15:00;;;;;;;15.77;6.50;;;;;;;-3.19;100.00;101950.28;5045224;28;20513;-48
2022/01/15 07:17:25;;;;;;;14.05;5.00;;;;;;;-3.15;100.00;101949.25;5046353;28;20323;-47
2022/01/15 07:19:51;;;;;;;18.27;6.93;;;;;;;-3.11;100.00;101947.34;5037450;28;20033;-49
2022/01/15 07:22:17;;;;;;;13.30;5.45;;;;;;;-3.10;100.00;101952.47;5044459;28;20033;-51
2022/01/15 07:24:42;;;;;;;11.32;5.65;;;;;;;-2.99;100.00;101945.97;5045612;28;20037;-51
2022/01/15 07:27:08;;;;;;;20.95;7.78;;;;;;;-2.97;100.00;101946.72;5029620;28;20502;-48
2022/01/15 07:29:36;;;;;;;15.35;5.78;;;;;;;-2.94;100.00;101949.22;5042092;28;20078;-48
2022/01/15 07:32:02;;;;;;;15.00;6.90;;;;;;;-2.89;100.00;101950.69;5046028;28;20045;-48
2022/01/15 07:34:28;;;;;;;15.75;5.80;;;;;;;-2.84;100.00;101958.25;5036981;28;20044;-50
2022/01/15 07:36:57;;;;;;;18.65;7.32;;;;;;;-2.80;100.00;101956.38;5041351;28;20040;-52
2022/01/15 07:39:23;;;;;;;15.20;6.05;;;;;;;-2.76;100.00;101951.00;5045060;28;20036;-51
2022/01/15 07:41:48;;;;;;;14.65;6.75;;;;;;;-2.72;100.00;101956.88;5032102;28;20087;-50
2022/01/15 07:44:14;;;;;;;15.98;6.18;;;;;;;-2.72;100.00;101960.31;5039359;28;20033;-48
2022/01/15 07:46:39;;;;;;;10.63;5.20;;;;;;;-2.69;100.00;101954.13;5033264;28;20037;-52
2022/01/15 07:49:04;;;;;;;25.45;7.90;;;;;;;-2.62;100.00;101952.94;5036801;28;20106;-53
2022/01/15 07:51:30;;;;;;;18.00;6.72;;;;;;;-2.63;100.00;101959.06;5040751;28;20024;-48
2022/01/15 07:53:55;;;;;;;22.35;8.95;;;;;;;-2.62;100.00;101960.75;5048500;28;21520;-50
2022/01/15 07:56:21;;;;;;;23.50;6.40;;;;;;;-2.58;100.00;101956.25;5028338;28;20048;-50
2022/01/15 07:58:47;;;;;;;17.77;7.18;;;;;;;-2.51;100.00;101958.47;5046767;28;20044;-49
2022/01/15 08:01:13;;;;;;;42.85;10.30;;;;;;;-2.47;100.00;101959.22;5043390;28;20033;-51
2022/01/15 08:03:38;;;;;;;31.50;9.20;;;;;;;-2.39;100.00;101958.84;5037547;28;20037;-49
2022/01/15 08:06:04;;;;;;;18.90;7.65;;;;;;;-2.31;100.00;101959.34;5040044;28;20124;-52
2022/01/15 08:08:30;;;;;;;17.45;6.78;;;;;;;-2.31;100.00;101954.13;5041091;28;20415;-48
2022/01/15 08:10:55;;;;;;;20.35;7.43;;;;;;;-2.32;100.00;101955.03;5043127;28;20033;-51
2022/01/15 08:13:20;;;;;;;13.35;7.10;;;;;;;-2.31;100.00;101954.13;5040582;28;20076;-48
2022/01/15 08:15:46;;;;;;;16.42;7.07;;;;;;;-2.30;100.00;101948.00;5040827;28;20047;-50
2022/01/15 08:18:11;;;;;;;21.17;8.13;;;;;;;-2.28;100.00;101949.63;5038388;28;20234;-47
2022/01/15 08:20:36;;;;;;;15.82;8.07;;;;;;;-2.18;100.00;101957.00;5038452;28;20480;-48
2022/01/15 08:23:02;;;;;;;26.35;7.50;;;;;;;-2.10;100.00;101947.06;5039456;28;20140;-50
2022/01/15 08:25:27;;;;;;;34.90;9.27;;;;;;;-2.07;100.00;101945.16;5040977;28;20056;-49
2022/01/15 08:27:53;;;;;;;16.75;7.53;;;;;;;-2.08;100.00;101946.09;5040407;28;20025;-48
2022/01/15 08:30:20;;;;;;;35.40;8.77;;;;;;;-2.08;100.00;101947.84;5037962;28;20166;-52
2022/01/15 08:32:46;;;;;;;30.50;9.15;;;;;;;-2.08;100.00;101943.50;5038361;28;20460;-48
2022/01/15 08:35:11;;;;;;;21.73;8.82;;;;;;;-2.04;100.00;101950.25;5037820;28;20029;-48
2022/01/15 08:37:40;;;;;;;29.08;8.05;;;;;;;-1.97;100.00;101949.00;5040258;28;20421;-52
2022/01/15 08:40:08;;;;;;;22.77;7.03;;;;;;;-1.91;100.00;101944.44;5042850;28;20043;-48
2022/01/15 08:42:34;;;;;;;20.60;8.25;;;;;;;-1.85;100.00;101938.94;5041833;28;20493;-50
2022/01/15 08:45:00;;;;;;;24.40;8.52;;;;;;;-1.80;100.00;101932.59;5040005;28;20060;-50
2022/01/15 08:47:25;;;;;;;17.60;6.38;;;;;;;-1.77;100.00;101932.44;5037540;28;20116;-51
2022/01/15 08:49:51;;;;;;;21.17;8.10;;;;;;;-1.73;100.00;101932.28;5036556;28;20029;-50
2022/01/15 08:52:16;;;;;;;14.18;6.18;;;;;;;-1.70;100.00;101938.19;5038361;28;20029;-51
2022/01/15 08:54:41;;;;;;;18.80;7.75;;;;;;;-1.66;100.00;101937.09;5042008;28;20052;-51
2022/01/15 08:57:07;;;;;;;28.90;8.50;;;;;;;-1.62;100.00;101936.06;5038148;28;20037;-48
2022/01/15 08:59:32;;;;;;;18.30;6.78;;;;;;;-1.56;100.00;101940.09;5018276;28;20281;-46
2022/01/15 09:01:59;;;;;;;28.05;8.18;;;;;;;-1.52;100.00;101938.16;5032975;28;20033;-49
2022/01/15 09:04:24;;;;;;;29.80;8.25;;;;;;;-1.48;100.00;101937.94;5039732;28;20466;-49
2022/01/15 09:06:50;;;;;;;14.27;6.40;;;;;;;-1.44;100.00;101938.66;5039218;28;20048;-48
2022/01/15 09:09:16;;;;;;;14.25;5.45;;;;;;;-1.43;100.00;101945.53;5036715;28;20032;-51
2022/01/15 09:11:41;;;;;;;12.73;5.82;;;;;;;-1.44;100.00;101938.66;5039683;28;20040;-48
2022/01/15 09:14:08;;;;;;;16.27;6.22;;;;;;;-1.38;100.00;101933.13;5034407;28;20033;-48
2022/01/15 09:16:33;;;;;;;14.43;6.05;;;;;;;-1.37;100.00;101934.78;5033569;28;20094;-52
2022/01/15 09:18:59;;;;;;;15.77;4.93;;;;;;;-1.36;100.00;101937.34;5037635;28;20386;-51
2022/01/15 09:21:24;;;;;;;15.10;6.90;;;;;;;-1.29;100.00;101930.06;5037623;28;20072;-46
2022/01/15 09:23:51;;;;;;;20.52;8.02;;;;;;;-1.24;100.00;101925.47;5042025;28;20039;-48
2022/01/15 09:26:23;;;;;;;9.63;5.32;;;;;;;-1.16;100.00;101930.25;5033721;28;20065;-49
2022/01/15 09:31:34;;;;;;;18.92;6.97;;;;;;;-1.14;100.00;101918.84;5036273;28;20821;-49
2022/01/15 09:34:00;;;;;;;14.90;5.15;;;;;;;-1.15;100.00;101917.16;5036922;28;20041;-52
2022/01/15 09:36:25;;;;;;;14.00;4.97;;;;;;;-1.10;100.00;101924.75;5043047;28;20056;-49
2022/01/15 09:38:51;;;;;;;14.95;7.78;;;;;;;-1.05;100.00;101920.13;5044712;28;20127;-47
2022/01/15 09:41:18;;;;;;;11.18;4.75;;;;;;;-1.01;100.00;101905.19;5022057;28;20032;-54
2022/01/15 09:43:43;;;;;;;19.02;6.18;;;;;;;-0.98;100.00;101916.28;5040879;28;20052;-49
2022/01/15 09:46:09;;;;;;;7.97;5.10;;;;;;;-0.95;100.00;101910.91;5039007;28;20112;-49
2022/01/15 09:48:38;;;;;;;12.15;4.07;;;;;;;-0.94;100.00;101903.94;5019123;28;20116;-50
2022/01/15 09:51:04;;;;;;;65.38;8.43;;;;;;;-0.89;100.00;101910.56;5040515;28;20056;-50
2022/01/15 09:53:32;;;;;;;32.53;6.30;;;;;;;-0.81;100.00;101907.56;5038303;28;20367;-48
2022/01/15 09:55:58;;;;;;;25.70;6.13;;;;;;;-0.77;100.00;101906.50;5038383;28;20029;-52
2022/01/15 09:58:23;;;;;;;36.08;8.95;;;;;;;-0.67;100.00;101901.63;5041813;28;20532;-49
2022/01/15 10:00:49;;;;;;;19.55;5.57;;;;;;;-0.61;100.00;101905.66;5037829;28;20033;-52
2022/01/15 10:03:14;;;;;;;26.33;6.93;;;;;;;-0.57;100.00;101899.34;5038853;28;20040;-50
2022/01/15 10:05:40;;;;;;;17.13;5.57;;;;;;;-0.53;100.00;101901.69;5040831;28;20048;-51
2022/01/15 10:08:11;;;;;;;13.77;6.53;;;;;;;-0.47;100.00;101908.34;5037554;28;20037;-52
2022/01/15 10:10:45;;;;;;;21.75;6.30;;;;;;;-0.42;100.00;101908.09;5037352;28;20554;-51
2022/01/15 10:13:27;;;;;;;18.88;6.63;;;;;;;-0.35;100.00;101915.47;5040082;28;20037;-50
2022/01/15 10:15:55;;;;;;;15.70;5.80;;;;;;;-0.31;100.00;101910.91;5024861;28;20082;-49
2022/01/15 10:18:33;;;;;;;13.18;5.13;;;;;;;-0.27;100.00;101908.06;5028160;28;20044;-52
2022/01/15 10:21:13;;;;;;;29.00;4.57;;;;;;;-0.22;100.00;101908.66;5036298;28;20036;-52
2022/01/15 10:23:51;;;;;;;19.27;9.60;;;;;;;-0.16;100.00;101906.63;5039542;28;20032;-53
2022/01/15 10:26:18;;;;;;;22.33;8.13;;;;;;;-0.07;100.00;101914.78;5030417;28;20048;-51
2022/01/15 10:29:16;;;;;;;18.52;6.72;;;;;;;0.02;100.00;101909.97;5035762;28;20098;-51
2022/01/15 10:31:44;;;;;;;30.38;6.47;;;;;;;0.11;100.00;101907.66;5022393;28;20068;-49
2022/01/15 10:34:31;;;;;;;36.97;11.90;;;;;;;0.21;100.00;101908.81;5021359;28;20496;-52
2022/01/15 10:37:08;;;;;;;20.35;6.63;;;;;;;0.30;100.00;101907.44;5040369;28;20103;-48
2022/01/15 10:39:34;;;;;;;11.38;5.70;;;;;;;0.33;100.00;101894.19;5037218;28;20029;-50
2022/01/15 10:41:59;;;;;;;26.05;8.75;;;;;;;0.35;100.00;101899.34;5041582;28;20044;-49
2022/01/15 10:44:27;;;;;;;21.27;6.88;;;;;;;0.40;100.00;101886.88;5042347;28;20033;-52
2022/01/15 10:47:03;;;;;;;15.73;6.53;;;;;;;0.47;100.00;101892.56;5038711;28;20462;-50
2022/01/15 10:49:29;;;;;;;12.18;5.38;;;;;;;0.48;100.00;101895.06;5040210;28;20596;-51
2022/01/15 10:52:13;;;;;;;22.55;6.88;;;;;;;0.51;100.00;101894.88;5043113;28;20048;-52
2022/01/15 10:55:11;;;;;;;12.05;5.35;;;;;;;0.58;100.00;101884.94;5037511;28;20032;-50
2022/01/15 10:57:40;;;;;;;25.27;6.93;;;;;;;0.64;100.00;101882.78;5035082;28;20060;-52
2022/01/15 11:00:11;;;;;;;28.13;10.60;;;;;;;0.67;100.00;101878.31;5040264;28;20082;-53
2022/01/15 11:02:38;;;;;;;17.52;6.82;;;;;;;0.71;100.00;101891.09;5040368;28;20033;-52
2022/01/15 11:05:19;;;;;;;20.55;9.00;;;;;;;0.76;100.00;101893.44;5036213;28;20423;-50
2022/01/15 11:07:44;;;;;;;24.30;11.43;;;;;;;0.78;100.00;101896.78;5034099;28;20029;-52
2022/01/15 11:10:10;;;;;;;32.78;13.35;;;;;;;0.82;100.00;101888.66;5037829;28;20048;-48
2022/01/15 11:12:35;;;;;;;19.42;8.63;;;;;;;0.82;100.00;101877.38;5033283;28;20036;-53
2022/01/15 11:15:01;;;;;;;18.67;8.00;;;;;;;0.87;100.00;101877.94;5038514;28;20087;-51
2022/01/15 11:17:27;;;;;;;16.65;7.47;;;;;;;0.91;100.00;101876.84;5040135;28;20083;-53
2022/01/15 11:19:53;;;;;;;16.70;7.60;;;;;;;1.02;100.00;101870.94;5036545;28;20025;-51
2022/01/15 11:22:23;;;;;;;15.23;6.57;;;;;;;1.11;100.00;101864.28;5036740;28;20025;-52
2022/01/15 11:24:50;;;;;;;19.00;6.63;;;;;;;1.16;100.00;101870.06;5040306;28;20028;-50
2022/01/15 11:27:15;;;;;;;10.68;6.80;;;;;;;1.21;100.00;101865.41;5035085;28;20030;-52
2022/01/15 11:29:43;;;;;;;12.80;6.25;;;;;;;1.24;100.00;101853.00;5035670;28;20452;-53
2022/01/15 11:32:12;;;;;;;11.88;5.07;;;;;;;1.30;100.00;101855.22;5038276;28;20040;-52